Terminal Aerodrome Forecast
Issued by NWS Jackson, MS

Home | Current Version | Previous Version | Text Only | Print | Product List | Glossary On
Versions: 1 2 3 4 5 6 7 8 9 10 11 12 13 14 15 16 17 18
000
FTUS44 KJAN 201700
TAFHBG
TAF
KHBG 201720Z 2018/2118 02008KT P6SM OVC010
     FM210300 02003KT P6SM OVC015
     FM211100 02003KT 5SM BR OVC003=

USA.gov is the U.S. government's official web portal to all federal, state and local government web resources and services.